sensor_id;sensor_type;location;lat;lon;timestamp;P1;durP1;ratioP1;P2;durP2;ratioP2
67160;SDS011;54088;52.238;21.104;2022-09-09T00:00:35;12.98;;;6.35;;
67160;SDS011;54088;52.238;21.104;2022-09-09T00:03:16;12.75;;;6.78;;
67160;SDS011;54088;52.238;21.104;2022-09-09T00:06:05;13.10;;;6.90;;
67160;SDS011;54088;52.238;21.104;2022-09-09T00:23:00;13.23;;;6.93;;
67160;SDS011;54088;52.238;21.104;2022-09-09T00:28:33;13.30;;;7.57;;
67160;SDS011;54088;52.238;21.104;2022-09-09T00:31:15;13.55;;;7.93;;
67160;SDS011;54088;52.238;21.104;2022-09-09T00:33:45;15.02;;;7.60;;
67160;SDS011;54088;52.238;21.104;2022-09-09T00:36:14;11.75;;;7.55;;
67160;SDS011;54088;52.238;21.104;2022-09-09T00:38:44;15.82;;;8.18;;
67160;SDS011;54088;52.238;21.104;2022-09-09T00:43:43;12.65;;;8.27;;
67160;SDS011;54088;52.238;21.104;2022-09-09T00:46:39;11.10;;;6.88;;
67160;SDS011;54088;52.238;21.104;2022-09-09T00:57:45;10.93;;;7.10;;
67160;SDS011;54088;52.238;21.104;2022-09-09T01:08:42;13.23;;;8.10;;
67160;SDS011;54088;52.238;21.104;2022-09-09T01:11:33;13.20;;;6.82;;
67160;SDS011;54088;52.238;21.104;2022-09-09T01:14:05;14.82;;;8.70;;
67160;SDS011;54088;52.238;21.104;2022-09-09T01:16:38;12.82;;;8.20;;
67160;SDS011;54088;52.238;21.104;2022-09-09T01:19:06;11.65;;;8.70;;
67160;SDS011;54088;52.238;21.104;2022-09-09T01:21:45;13.93;;;8.02;;
67160;SDS011;54088;52.238;21.104;2022-09-09T01:24:38;12.80;;;7.82;;
67160;SDS011;54088;52.238;21.104;2022-09-09T01:27:09;12.10;;;7.47;;
67160;SDS011;54088;52.238;21.104;2022-09-09T01:29:35;15.40;;;8.68;;
67160;SDS011;54088;52.238;21.104;2022-09-09T01:32:02;16.85;;;8.27;;
67160;SDS011;54088;52.238;21.104;2022-09-09T01:34:48;12.70;;;8.30;;
67160;SDS011;54088;52.238;21.104;2022-09-09T01:37:16;11.80;;;7.68;;
67160;SDS011;54088;52.238;21.104;2022-09-09T01:39:43;16.10;;;8.85;;
67160;SDS011;54088;52.238;21.104;2022-09-09T01:42:11;12.93;;;8.70;;
67160;SDS011;54088;52.238;21.104;2022-09-09T01:44:39;14.88;;;9.45;;
67160;SDS011;54088;52.238;21.104;2022-09-09T01:47:05;14.50;;;8.32;;
67160;SDS011;54088;52.238;21.104;2022-09-09T01:49:31;11.63;;;8.43;;
67160;SDS011;54088;52.238;21.104;2022-09-09T01:51:57;12.07;;;7.80;;
67160;SDS011;54088;52.238;21.104;2022-09-09T01:54:26;16.50;;;9.38;;
67160;SDS011;54088;52.238;21.104;2022-09-09T01:57:02;13.00;;;9.07;;
67160;SDS011;54088;52.238;21.104;2022-09-09T02:04:48;13.50;;;8.80;;
67160;SDS011;54088;52.238;21.104;2022-09-09T02:07:39;15.23;;;9.45;;
67160;SDS011;54088;52.238;21.104;2022-09-09T02:12:42;16.13;;;9.32;;
67160;SDS011;54088;52.238;21.104;2022-09-09T02:15:17;15.70;;;9.18;;
67160;SDS011;54088;52.238;21.104;2022-09-09T02:17:53;14.45;;;9.45;;
67160;SDS011;54088;52.238;21.104;2022-09-09T02:20:22;14.95;;;9.88;;
67160;SDS011;54088;52.238;21.104;2022-09-09T02:22:50;16.50;;;10.20;;
67160;SDS011;54088;52.238;21.104;2022-09-09T02:25:18;14.15;;;9.65;;
67160;SDS011;54088;52.238;21.104;2022-09-09T02:27:46;13.95;;;10.07;;
67160;SDS011;54088;52.238;21.104;2022-09-09T02:30:14;14.07;;;9.95;;
67160;SDS011;54088;52.238;21.104;2022-09-09T02:32:40;14.98;;;9.90;;
67160;SDS011;54088;52.238;21.104;2022-09-09T02:35:15;15.32;;;10.20;;
67160;SDS011;54088;52.238;21.104;2022-09-09T02:37:44;14.40;;;10.23;;
67160;SDS011;54088;52.238;21.104;2022-09-09T02:40:13;16.45;;;10.43;;
67160;SDS011;54088;52.238;21.104;2022-09-09T02:42:43;15.45;;;10.10;;
67160;SDS011;54088;52.238;21.104;2022-09-09T02:50:15;14.70;;;10.27;;
67160;SDS011;54088;52.238;21.104;2022-09-09T02:58:27;15.38;;;10.45;;
67160;SDS011;54088;52.238;21.104;2022-09-09T03:00:53;14.48;;;10.48;;
67160;SDS011;54088;52.238;21.104;2022-09-09T03:03:19;18.13;;;11.02;;
67160;SDS011;54088;52.238;21.104;2022-09-09T03:05:47;15.45;;;10.77;;
67160;SDS011;54088;52.238;21.104;2022-09-09T03:08:12;16.55;;;10.45;;
67160;SDS011;54088;52.238;21.104;2022-09-09T03:10:38;15.40;;;10.15;;
67160;SDS011;54088;52.238;21.104;2022-09-09T03:13:04;16.60;;;9.93;;
67160;SDS011;54088;52.238;21.104;2022-09-09T03:15:30;15.82;;;10.38;;
67160;SDS011;54088;52.238;21.104;2022-09-09T03:17:57;15.32;;;10.60;;
67160;SDS011;54088;52.238;21.104;2022-09-09T03:20:24;16.88;;;11.38;;
67160;SDS011;54088;52.238;21.104;2022-09-09T03:22:51;15.27;;;10.57;;
67160;SDS011;54088;52.238;21.104;2022-09-09T03:25:17;14.48;;;9.75;;
67160;SDS011;54088;52.238;21.104;2022-09-09T03:27:43;15.68;;;10.75;;
67160;SDS011;54088;52.238;21.104;2022-09-09T03:30:08;15.10;;;10.18;;
67160;SDS011;54088;52.238;21.104;2022-09-09T03:32:34;15.30;;;10.90;;
67160;SDS011;54088;52.238;21.104;2022-09-09T03:35:01;14.65;;;10.48;;
67160;SDS011;54088;52.238;21.104;2022-09-09T03:37:27;14.50;;;10.15;;
67160;SDS011;54088;52.238;21.104;2022-09-09T03:39:52;13.82;;;11.07;;
67160;SDS011;54088;52.238;21.104;2022-09-09T03:42:19;19.00;;;10.93;;
67160;SDS011;54088;52.238;21.104;2022-09-09T03:44:46;15.32;;;9.90;;
67160;SDS011;54088;52.238;21.104;2022-09-09T03:47:14;14.85;;;10.10;;
67160;SDS011;54088;52.238;21.104;2022-09-09T03:49:43;14.07;;;9.80;;
67160;SDS011;54088;52.238;21.104;2022-09-09T03:52:10;15.07;;;9.75;;
67160;SDS011;54088;52.238;21.104;2022-09-09T03:54:36;15.43;;;9.48;;
67160;SDS011;54088;52.238;21.104;2022-09-09T03:57:02;13.95;;;9.20;;
67160;SDS011;54088;52.238;21.104;2022-09-09T03:59:27;11.88;;;9.68;;
67160;SDS011;54088;52.238;21.104;2022-09-09T04:01:53;12.63;;;9.05;;
67160;SDS011;54088;52.238;21.104;2022-09-09T04:04:19;13.23;;;8.85;;
67160;SDS011;54088;52.238;21.104;2022-09-09T04:06:46;12.65;;;8.63;;
67160;SDS011;54088;52.238;21.104;2022-09-09T04:09:13;12.57;;;8.70;;
67160;SDS011;54088;52.238;21.104;2022-09-09T04:11:39;13.55;;;8.55;;
67160;SDS011;54088;52.238;21.104;2022-09-09T04:14:04;12.25;;;8.23;;
67160;SDS011;54088;52.238;21.104;2022-09-09T04:16:31;13.88;;;7.50;;
67160;SDS011;54088;52.238;21.104;2022-09-09T04:18:58;10.32;;;7.30;;
67160;SDS011;54088;52.238;21.104;2022-09-09T04:21:24;10.90;;;7.47;;
67160;SDS011;54088;52.238;21.104;2022-09-09T04:23:50;10.55;;;8.32;;
67160;SDS011;54088;52.238;21.104;2022-09-09T04:26:16;11.65;;;8.25;;
67160;SDS011;54088;52.238;21.104;2022-09-09T04:28:42;10.93;;;7.35;;
67160;SDS011;54088;52.238;21.104;2022-09-09T04:31:09;10.43;;;7.43;;
67160;SDS011;54088;52.238;21.104;2022-09-09T04:33:39;13.38;;;7.70;;
67160;SDS011;54088;52.238;21.104;2022-09-09T04:36:05;10.07;;;6.75;;
67160;SDS011;54088;52.238;21.104;2022-09-09T04:38:30;10.38;;;7.43;;
67160;SDS011;54088;52.238;21.104;2022-09-09T04:40:56;10.75;;;7.97;;
67160;SDS011;54088;52.238;21.104;2022-09-09T04:43:22;10.90;;;7.53;;
67160;SDS011;54088;52.238;21.104;2022-09-09T04:45:50;10.80;;;8.10;;
67160;SDS011;54088;52.238;21.104;2022-09-09T04:48:16;11.45;;;7.78;;
67160;SDS011;54088;52.238;21.104;2022-09-09T04:50:42;11.00;;;7.47;;
67160;SDS011;54088;52.238;21.104;2022-09-09T04:53:08;10.25;;;7.82;;
67160;SDS011;54088;52.238;21.104;2022-09-09T04:55:34;10.88;;;7.63;;
67160;SDS011;54088;52.238;21.104;2022-09-09T04:58:06;9.93;;;7.25;;
67160;SDS011;54088;52.238;21.104;2022-09-09T05:00:33;10.02;;;6.97;;
67160;SDS011;54088;52.238;21.104;2022-09-09T05:03:06;10.65;;;7.45;;
67160;SDS011;54088;52.238;21.104;2022-09-09T05:05:33;9.55;;;6.30;;
67160;SDS011;54088;52.238;21.104;2022-09-09T05:08:03;11.00;;;6.80;;
67160;SDS011;54088;52.238;21.104;2022-09-09T05:10:30;8.88;;;6.68;;
67160;SDS011;54088;52.238;21.104;2022-09-09T05:12:56;10.77;;;6.70;;
67160;SDS011;54088;52.238;21.104;2022-09-09T05:15:22;10.20;;;6.70;;
67160;SDS011;54088;52.238;21.104;2022-09-09T05:17:47;12.55;;;7.18;;
67160;SDS011;54088;52.238;21.104;2022-09-09T05:20:13;9.15;;;6.40;;
67160;SDS011;54088;52.238;21.104;2022-09-09T05:22:39;11.65;;;6.43;;
67160;SDS011;54088;52.238;21.104;2022-09-09T05:25:05;10.30;;;6.85;;
67160;SDS011;54088;52.238;21.104;2022-09-09T05:27:33;9.02;;;6.47;;
67160;SDS011;54088;52.238;21.104;2022-09-09T05:29:59;9.93;;;6.60;;
67160;SDS011;54088;52.238;21.104;2022-09-09T05:32:24;9.70;;;6.35;;
67160;SDS011;54088;52.238;21.104;2022-09-09T05:34:51;9.57;;;5.85;;
67160;SDS011;54088;52.238;21.104;2022-09-09T05:37:17;10.55;;;6.38;;
67160;SDS011;54088;52.238;21.104;2022-09-09T05:39:43;9.77;;;6.20;;
67160;SDS011;54088;52.238;21.104;2022-09-09T05:42:09;8.25;;;5.95;;
67160;SDS011;54088;52.238;21.104;2022-09-09T05:44:35;9.23;;;6.90;;
67160;SDS011;54088;52.238;21.104;2022-09-09T05:47:00;9.35;;;6.05;;
67160;SDS011;54088;52.238;21.104;2022-09-09T05:49:26;11.20;;;7.07;;
67160;SDS011;54088;52.238;21.104;2022-09-09T05:51:52;9.63;;;5.88;;
67160;SDS011;54088;52.238;21.104;2022-09-09T05:54:18;9.30;;;6.38;;
67160;SDS011;54088;52.238;21.104;2022-09-09T05:56:43;10.02;;;6.72;;
67160;SDS011;54088;52.238;21.104;2022-09-09T05:59:09;9.48;;;6.50;;
67160;SDS011;54088;52.238;21.104;2022-09-09T06:01:36;8.13;;;6.15;;
67160;SDS011;54088;52.238;21.104;2022-09-09T06:04:05;10.35;;;7.00;;
67160;SDS011;54088;52.238;21.104;2022-09-09T06:06:32;9.35;;;6.70;;
67160;SDS011;54088;52.238;21.104;2022-09-09T06:09:02;10.20;;;7.40;;
67160;SDS011;54088;52.238;21.104;2022-09-09T06:11:31;8.65;;;6.72;;
67160;SDS011;54088;52.238;21.104;2022-09-09T06:13:58;10.27;;;6.82;;
67160;SDS011;54088;52.238;21.104;2022-09-09T06:16:25;9.95;;;6.50;;
67160;SDS011;54088;52.238;21.104;2022-09-09T06:18:52;8.48;;;6.32;;
67160;SDS011;54088;52.238;21.104;2022-09-09T06:21:23;11.18;;;7.13;;
67160;SDS011;54088;52.238;21.104;2022-09-09T06:23:51;10.38;;;6.90;;
67160;SDS011;54088;52.238;21.104;2022-09-09T06:26:19;9.68;;;6.85;;
67160;SDS011;54088;52.238;21.104;2022-09-09T06:28:46;9.00;;;6.93;;
67160;SDS011;54088;52.238;21.104;2022-09-09T06:31:15;11.68;;;8.10;;
67160;SDS011;54088;52.238;21.104;2022-09-09T06:33:52;10.77;;;7.70;;
67160;SDS011;54088;52.238;21.104;2022-09-09T06:36:30;9.75;;;7.45;;
67160;SDS011;54088;52.238;21.104;2022-09-09T06:38:57;9.38;;;6.90;;
67160;SDS011;54088;52.238;21.104;2022-09-09T06:41:24;11.05;;;7.25;;
67160;SDS011;54088;52.238;21.104;2022-09-09T06:43:54;10.85;;;7.38;;
67160;SDS011;54088;52.238;21.104;2022-09-09T06:46:26;11.63;;;7.40;;
67160;SDS011;54088;52.238;21.104;2022-09-09T06:48:53;12.80;;;8.02;;
67160;SDS011;54088;52.238;21.104;2022-09-09T06:51:28;11.38;;;7.72;;
67160;SDS011;54088;52.238;21.104;2022-09-09T06:54:00;12.88;;;8.55;;
67160;SDS011;54088;52.238;21.104;2022-09-09T06:58:57;10.15;;;8.10;;
67160;SDS011;54088;52.238;21.104;2022-09-09T07:01:26;11.32;;;9.40;;
67160;SDS011;54088;52.238;21.104;2022-09-09T07:03:57;13.18;;;8.93;;
67160;SDS011;54088;52.238;21.104;2022-09-09T07:06:28;13.05;;;8.95;;
67160;SDS011;54088;52.238;21.104;2022-09-09T07:08:56;12.45;;;8.68;;
67160;SDS011;54088;52.238;21.104;2022-09-09T07:11:25;11.82;;;8.82;;
67160;SDS011;54088;52.238;21.104;2022-09-09T07:13:52;13.20;;;9.65;;
67160;SDS011;54088;52.238;21.104;2022-09-09T07:16:18;12.98;;;9.15;;
67160;SDS011;54088;52.238;21.104;2022-09-09T07:18:45;12.18;;;9.25;;
67160;SDS011;54088;52.238;21.104;2022-09-09T07:21:12;12.10;;;9.18;;
67160;SDS011;54088;52.238;21.104;2022-09-09T07:23:39;13.98;;;9.85;;
67160;SDS011;54088;52.238;21.104;2022-09-09T07:26:09;12.45;;;8.70;;
67160;SDS011;54088;52.238;21.104;2022-09-09T07:28:36;13.20;;;9.63;;
67160;SDS011;54088;52.238;21.104;2022-09-09T07:31:03;13.25;;;9.00;;
67160;SDS011;54088;52.238;21.104;2022-09-09T07:33:30;13.63;;;10.25;;
67160;SDS011;54088;52.238;21.104;2022-09-09T07:36:08;13.88;;;10.00;;
67160;SDS011;54088;52.238;21.104;2022-09-09T07:38:53;12.80;;;10.50;;
67160;SDS011;54088;52.238;21.104;2022-09-09T07:41:22;15.80;;;10.15;;
67160;SDS011;54088;52.238;21.104;2022-09-09T07:43:49;12.73;;;9.95;;
67160;SDS011;54088;52.238;21.104;2022-09-09T07:46:17;15.18;;;10.23;;
67160;SDS011;54088;52.238;21.104;2022-09-09T07:48:47;13.05;;;9.23;;
67160;SDS011;54088;52.238;21.104;2022-09-09T07:51:18;13.57;;;10.35;;
67160;SDS011;54088;52.238;21.104;2022-09-09T07:53:47;12.98;;;9.77;;
67160;SDS011;54088;52.238;21.104;2022-09-09T07:56:16;13.15;;;9.93;;
67160;SDS011;54088;52.238;21.104;2022-09-09T07:58:44;14.27;;;10.07;;
67160;SDS011;54088;52.238;21.104;2022-09-09T08:01:20;13.55;;;10.00;;
67160;SDS011;54088;52.238;21.104;2022-09-09T08:03:58;13.38;;;9.85;;
67160;SDS011;54088;52.238;21.104;2022-09-09T08:06:27;12.88;;;11.15;;
67160;SDS011;54088;52.238;21.104;2022-09-09T08:08:53;16.52;;;10.77;;
67160;SDS011;54088;52.238;21.104;2022-09-09T08:11:20;14.10;;;9.70;;
67160;SDS011;54088;52.238;21.104;2022-09-09T08:13:48;15.07;;;10.48;;
67160;SDS011;54088;52.238;21.104;2022-09-09T08:16:15;14.85;;;10.20;;
67160;SDS011;54088;52.238;21.104;2022-09-09T08:18:42;12.52;;;9.73;;
67160;SDS011;54088;52.238;21.104;2022-09-09T08:23:37;15.60;;;10.93;;
67160;SDS011;54088;52.238;21.104;2022-09-09T08:26:09;14.88;;;10.93;;
67160;SDS011;54088;52.238;21.104;2022-09-09T08:28:37;13.55;;;10.50;;
67160;SDS011;54088;52.238;21.104;2022-09-09T08:31:11;13.55;;;10.77;;
67160;SDS011;54088;52.238;21.104;2022-09-09T08:33:40;13.15;;;10.55;;
67160;SDS011;54088;52.238;21.104;2022-09-09T08:36:07;17.98;;;11.38;;
67160;SDS011;54088;52.238;21.104;2022-09-09T08:38:35;16.08;;;10.25;;
67160;SDS011;54088;52.238;21.104;2022-09-09T08:43:52;12.98;;;10.65;;
67160;SDS011;54088;52.238;21.104;2022-09-09T08:52:51;14.73;;;11.15;;
67160;SDS011;54088;52.238;21.104;2022-09-09T08:58:26;13.48;;;10.75;;
67160;SDS011;54088;52.238;21.104;2022-09-09T09:09:02;17.02;;;11.77;;
67160;SDS011;54088;52.238;21.104;2022-09-09T09:11:49;14.98;;;11.52;;
67160;SDS011;54088;52.238;21.104;2022-09-09T09:14:24;16.90;;;11.63;;
67160;SDS011;54088;52.238;21.104;2022-09-09T09:19:47;16.02;;;12.30;;
67160;SDS011;54088;52.238;21.104;2022-09-09T09:22:16;14.23;;;11.98;;
67160;SDS011;54088;52.238;21.104;2022-09-09T09:27:16;26.85;;;22.15;;
67160;SDS011;54088;52.238;21.104;2022-09-09T09:29:50;26.02;;;19.35;;
67160;SDS011;54088;52.238;21.104;2022-09-09T09:32:19;21.80;;;18.08;;
67160;SDS011;54088;52.238;21.104;2022-09-09T09:34:51;21.88;;;13.68;;
67160;SDS011;54088;52.238;21.104;2022-09-09T09:37:26;21.45;;;14.32;;
67160;SDS011;54088;52.238;21.104;2022-09-09T09:40:19;17.30;;;13.15;;
67160;SDS011;54088;52.238;21.104;2022-09-09T09:42:51;16.63;;;13.30;;
67160;SDS011;54088;52.238;21.104;2022-09-09T09:48:10;21.27;;;14.98;;
67160;SDS011;54088;52.238;21.104;2022-09-09T09:50:47;19.80;;;14.35;;
67160;SDS011;54088;52.238;21.104;2022-09-09T09:53:20;19.43;;;14.37;;
67160;SDS011;54088;52.238;21.104;2022-09-09T09:55:56;18.75;;;13.95;;
67160;SDS011;54088;52.238;21.104;2022-09-09T09:58:27;20.20;;;15.25;;
67160;SDS011;54088;52.238;21.104;2022-09-09T10:00:59;21.13;;;14.18;;
67160;SDS011;54088;52.238;21.104;2022-09-09T10:03:30;17.77;;;14.20;;
67160;SDS011;54088;52.238;21.104;2022-09-09T10:05:57;20.55;;;15.10;;
67160;SDS011;54088;52.238;21.104;2022-09-09T10:08:24;19.25;;;15.10;;
67160;SDS011;54088;52.238;21.104;2022-09-09T10:19:07;22.00;;;16.83;;
67160;SDS011;54088;52.238;21.104;2022-09-09T10:24:22;22.42;;;16.02;;
67160;SDS011;54088;52.238;21.104;2022-09-09T10:27:03;23.05;;;16.35;;
67160;SDS011;54088;52.238;21.104;2022-09-09T10:32:49;22.70;;;17.17;;
67160;SDS011;54088;52.238;21.104;2022-09-09T10:38:30;21.23;;;15.00;;
67160;SDS011;54088;52.238;21.104;2022-09-09T10:41:40;21.33;;;16.70;;
67160;SDS011;54088;52.238;21.104;2022-09-09T10:44:03;20.88;;;15.38;;
67160;SDS011;54088;52.238;21.104;2022-09-09T10:49:49;22.83;;;18.02;;
67160;SDS011;54088;52.238;21.104;2022-09-09T10:52:42;21.48;;;16.17;;
67160;SDS011;54088;52.238;21.104;2022-09-09T10:55:19;21.27;;;16.73;;
67160;SDS011;54088;52.238;21.104;2022-09-09T10:57:50;21.63;;;16.92;;
67160;SDS011;54088;52.238;21.104;2022-09-09T11:01:01;23.60;;;17.90;;
67160;SDS011;54088;52.238;21.104;2022-09-09T11:03:24;22.35;;;18.13;;
67160;SDS011;54088;52.238;21.104;2022-09-09T11:08:29;25.73;;;19.75;;
67160;SDS011;54088;52.238;21.104;2022-09-09T11:21:55;24.45;;;19.58;;
67160;SDS011;54088;52.238;21.104;2022-09-09T11:24:35;27.55;;;20.35;;
67160;SDS011;54088;52.238;21.104;2022-09-09T11:27:21;24.95;;;20.08;;
67160;SDS011;54088;52.238;21.104;2022-09-09T11:40:43;28.10;;;20.50;;
67160;SDS011;54088;52.238;21.104;2022-09-09T11:43:11;25.67;;;20.20;;
67160;SDS011;54088;52.238;21.104;2022-09-09T11:45:43;27.05;;;22.35;;
67160;SDS011;54088;52.238;21.104;2022-09-09T11:51:12;28.40;;;21.73;;
67160;SDS011;54088;52.238;21.104;2022-09-09T11:53:54;28.38;;;23.02;;
67160;SDS011;54088;52.238;21.104;2022-09-09T11:56:30;30.15;;;23.08;;
67160;SDS011;54088;52.238;21.104;2022-09-09T12:04:16;29.48;;;23.65;;
67160;SDS011;54088;52.238;21.104;2022-09-09T12:06:53;28.63;;;23.00;;
67160;SDS011;54088;52.238;21.104;2022-09-09T12:09:35;31.63;;;23.17;;
67160;SDS011;54088;52.238;21.104;2022-09-09T12:17:19;30.90;;;23.35;;
67160;SDS011;54088;52.238;21.104;2022-09-09T12:19:47;30.70;;;24.33;;
67160;SDS011;54088;52.238;21.104;2022-09-09T12:27:28;31.35;;;23.48;;
67160;SDS011;54088;52.238;21.104;2022-09-09T12:30:12;31.25;;;24.17;;
67160;SDS011;54088;52.238;21.104;2022-09-09T12:32:40;32.65;;;24.85;;
67160;SDS011;54088;52.238;21.104;2022-09-09T12:35:19;31.08;;;25.13;;
67160;SDS011;54088;52.238;21.104;2022-09-09T12:40:25;34.95;;;24.85;;
67160;SDS011;54088;52.238;21.104;2022-09-09T12:45:24;32.67;;;24.10;;
67160;SDS011;54088;52.238;21.104;2022-09-09T12:47:56;32.92;;;25.20;;
67160;SDS011;54088;52.238;21.104;2022-09-09T12:50:30;33.25;;;24.85;;
67160;SDS011;54088;52.238;21.104;2022-09-09T12:53:06;30.55;;;21.98;;
67160;SDS011;54088;52.238;21.104;2022-09-09T12:55:36;31.15;;;22.55;;
67160;SDS011;54088;52.238;21.104;2022-09-09T12:58:03;32.95;;;24.20;;
67160;SDS011;54088;52.238;21.104;2022-09-09T13:00:31;32.47;;;23.40;;
67160;SDS011;54088;52.238;21.104;2022-09-09T13:02:59;31.00;;;22.98;;
67160;SDS011;54088;52.238;21.104;2022-09-09T13:05:28;34.38;;;22.25;;
67160;SDS011;54088;52.238;21.104;2022-09-09T13:08:05;31.33;;;22.17;;
67160;SDS011;54088;52.238;21.104;2022-09-09T13:10:35;36.10;;;23.45;;
67160;SDS011;54088;52.238;21.104;2022-09-09T13:13:39;30.98;;;22.92;;
67160;SDS011;54088;52.238;21.104;2022-09-09T13:15:58;33.22;;;22.38;;
67160;SDS011;54088;52.238;21.104;2022-09-09T13:18:27;33.25;;;23.15;;
67160;SDS011;54088;52.238;21.104;2022-09-09T13:20:55;31.10;;;22.00;;
67160;SDS011;54088;52.238;21.104;2022-09-09T13:23:32;34.88;;;22.80;;
67160;SDS011;54088;52.238;21.104;2022-09-09T13:26:18;29.73;;;21.23;;
67160;SDS011;54088;52.238;21.104;2022-09-09T13:28:52;32.72;;;22.02;;
67160;SDS011;54088;52.238;21.104;2022-09-09T13:31:20;28.42;;;21.45;;
67160;SDS011;54088;52.238;21.104;2022-09-09T13:33:46;29.90;;;21.55;;
67160;SDS011;54088;52.238;21.104;2022-09-09T13:36:12;32.65;;;22.63;;
67160;SDS011;54088;52.238;21.104;2022-09-09T13:41:19;32.17;;;22.35;;
67160;SDS011;54088;52.238;21.104;2022-09-09T13:43:49;30.90;;;21.65;;
67160;SDS011;54088;52.238;21.104;2022-09-09T13:46:24;34.80;;;22.67;;
67160;SDS011;54088;52.238;21.104;2022-09-09T13:54:02;26.92;;;20.55;;
67160;SDS011;54088;52.238;21.104;2022-09-09T13:56:31;33.53;;;22.65;;
67160;SDS011;54088;52.238;21.104;2022-09-09T13:58:57;31.83;;;21.60;;
67160;SDS011;54088;52.238;21.104;2022-09-09T14:01:23;30.05;;;21.92;;
67160;SDS011;54088;52.238;21.104;2022-09-09T14:03:49;32.50;;;21.75;;
67160;SDS011;54088;52.238;21.104;2022-09-09T14:06:15;30.10;;;22.02;;
67160;SDS011;54088;52.238;21.104;2022-09-09T14:08:42;37.20;;;23.15;;
67160;SDS011;54088;52.238;21.104;2022-09-09T14:11:08;36.03;;;23.42;;
67160;SDS011;54088;52.238;21.104;2022-09-09T14:13:37;34.30;;;23.80;;
67160;SDS011;54088;52.238;21.104;2022-09-09T14:16:03;31.15;;;23.08;;
67160;SDS011;54088;52.238;21.104;2022-09-09T14:18:29;32.00;;;21.67;;
67160;SDS011;54088;52.238;21.104;2022-09-09T14:20:54;32.50;;;22.63;;
67160;SDS011;54088;52.238;21.104;2022-09-09T14:23:22;30.35;;;22.40;;
67160;SDS011;54088;52.238;21.104;2022-09-09T14:25:49;32.67;;;23.55;;
67160;SDS011;54088;52.238;21.104;2022-09-09T14:28:16;31.38;;;22.63;;
67160;SDS011;54088;52.238;21.104;2022-09-09T14:30:42;30.95;;;22.77;;
67160;SDS011;54088;52.238;21.104;2022-09-09T14:33:10;31.08;;;22.15;;
67160;SDS011;54088;52.238;21.104;2022-09-09T14:35:39;32.90;;;22.77;;
67160;SDS011;54088;52.238;21.104;2022-09-09T14:38:06;31.95;;;23.17;;
67160;SDS011;54088;52.238;21.104;2022-09-09T14:40:33;30.38;;;22.85;;
67160;SDS011;54088;52.238;21.104;2022-09-09T14:43:00;33.05;;;22.73;;
67160;SDS011;54088;52.238;21.104;2022-09-09T14:45:26;33.33;;;21.20;;
67160;SDS011;54088;52.238;21.104;2022-09-09T14:47:52;30.08;;;22.92;;
67160;SDS011;54088;52.238;21.104;2022-09-09T14:50:18;29.98;;;22.60;;
67160;SDS011;54088;52.238;21.104;2022-09-09T14:52:44;27.23;;;21.35;;
67160;SDS011;54088;52.238;21.104;2022-09-09T14:55:10;32.80;;;23.50;;
67160;SDS011;54088;52.238;21.104;2022-09-09T14:57:36;29.55;;;22.52;;
67160;SDS011;54088;52.238;21.104;2022-09-09T15:00:05;32.35;;;22.55;;
67160;SDS011;54088;52.238;21.104;2022-09-09T15:02:32;30.95;;;21.35;;
67160;SDS011;54088;52.238;21.104;2022-09-09T15:04:58;32.45;;;22.83;;
67160;SDS011;54088;52.238;21.104;2022-09-09T15:07:24;25.85;;;21.00;;
67160;SDS011;54088;52.238;21.104;2022-09-09T15:09:51;32.80;;;23.63;;
67160;SDS011;54088;52.238;21.104;2022-09-09T15:12:17;27.48;;;22.70;;
67160;SDS011;54088;52.238;21.104;2022-09-09T15:14:44;33.00;;;22.52;;
67160;SDS011;54088;52.238;21.104;2022-09-09T15:17:10;31.38;;;21.98;;
67160;SDS011;54088;52.238;21.104;2022-09-09T15:19:36;36.53;;;25.50;;
67160;SDS011;54088;52.238;21.104;2022-09-09T15:22:03;34.25;;;23.75;;
67160;SDS011;54088;52.238;21.104;2022-09-09T15:24:32;31.15;;;23.73;;
67160;SDS011;54088;52.238;21.104;2022-09-09T15:26:58;34.08;;;24.60;;
67160;SDS011;54088;52.238;21.104;2022-09-09T15:29:24;36.50;;;25.13;;
67160;SDS011;54088;52.238;21.104;2022-09-09T15:31:50;33.83;;;24.90;;
67160;SDS011;54088;52.238;21.104;2022-09-09T15:34:15;34.13;;;25.90;;
67160;SDS011;54088;52.238;21.104;2022-09-09T15:36:44;34.47;;;24.88;;
67160;SDS011;54088;52.238;21.104;2022-09-09T15:39:14;33.30;;;24.20;;
67160;SDS011;54088;52.238;21.104;2022-09-09T15:41:41;30.85;;;22.45;;
67160;SDS011;54088;52.238;21.104;2022-09-09T15:44:08;32.55;;;23.60;;
67160;SDS011;54088;52.238;21.104;2022-09-09T15:46:41;32.88;;;24.92;;
67160;SDS011;54088;52.238;21.104;2022-09-09T15:49:14;32.58;;;24.65;;
67160;SDS011;54088;52.238;21.104;2022-09-09T15:51:46;29.13;;;22.40;;
67160;SDS011;54088;52.238;21.104;2022-09-09T15:54:16;33.08;;;22.17;;
67160;SDS011;54088;52.238;21.104;2022-09-09T15:56:43;32.33;;;22.33;;
67160;SDS011;54088;52.238;21.104;2022-09-09T15:59:10;36.22;;;25.30;;
67160;SDS011;54088;52.238;21.104;2022-09-09T16:01:36;35.63;;;24.50;;
67160;SDS011;54088;52.238;21.104;2022-09-09T16:04:04;35.55;;;24.27;;
67160;SDS011;54088;52.238;21.104;2022-09-09T16:06:30;36.88;;;25.55;;
67160;SDS011;54088;52.238;21.104;2022-09-09T16:08:57;32.35;;;23.35;;
67160;SDS011;54088;52.238;21.104;2022-09-09T16:11:29;31.55;;;22.83;;
67160;SDS011;54088;52.238;21.104;2022-09-09T16:13:57;32.20;;;23.08;;
67160;SDS011;54088;52.238;21.104;2022-09-09T16:16:24;33.88;;;23.83;;
67160;SDS011;54088;52.238;21.104;2022-09-09T16:18:51;31.70;;;22.60;;
67160;SDS011;54088;52.238;21.104;2022-09-09T16:21:23;27.90;;;23.20;;
67160;SDS011;54088;52.238;21.104;2022-09-09T16:23:52;31.40;;;22.02;;
67160;SDS011;54088;52.238;21.104;2022-09-09T16:26:18;32.25;;;22.60;;
67160;SDS011;54088;52.238;21.104;2022-09-09T16:28:45;33.47;;;24.23;;
67160;SDS011;54088;52.238;21.104;2022-09-09T16:31:13;30.67;;;22.25;;
67160;SDS011;54088;52.238;21.104;2022-09-09T16:33:42;28.92;;;21.80;;
67160;SDS011;54088;52.238;21.104;2022-09-09T16:36:08;29.50;;;23.15;;
67160;SDS011;54088;52.238;21.104;2022-09-09T16:38:43;33.05;;;23.15;;
67160;SDS011;54088;52.238;21.104;2022-09-09T16:41:09;31.38;;;21.42;;
67160;SDS011;54088;52.238;21.104;2022-09-09T16:43:36;30.08;;;22.55;;
67160;SDS011;54088;52.238;21.104;2022-09-09T16:46:03;32.15;;;22.58;;
67160;SDS011;54088;52.238;21.104;2022-09-09T16:48:37;34.00;;;22.50;;
67160;SDS011;54088;52.238;21.104;2022-09-09T16:51:04;29.98;;;22.60;;
67160;SDS011;54088;52.238;21.104;2022-09-09T16:53:32;33.08;;;22.80;;
67160;SDS011;54088;52.238;21.104;2022-09-09T16:56:04;30.80;;;21.67;;
67160;SDS011;54088;52.238;21.104;2022-09-09T16:58:34;33.00;;;22.58;;
67160;SDS011;54088;52.238;21.104;2022-09-09T17:01:00;30.98;;;22.95;;
67160;SDS011;54088;52.238;21.104;2022-09-09T17:03:28;29.05;;;22.60;;
67160;SDS011;54088;52.238;21.104;2022-09-09T17:05:54;29.10;;;22.67;;
67160;SDS011;54088;52.238;21.104;2022-09-09T17:08:20;33.17;;;23.08;;
67160;SDS011;54088;52.238;21.104;2022-09-09T17:10:45;29.63;;;22.95;;
67160;SDS011;54088;52.238;21.104;2022-09-09T17:13:12;30.52;;;23.35;;
67160;SDS011;54088;52.238;21.104;2022-09-09T17:15:41;30.75;;;22.63;;